createdAt,value
2023-01-15T00:05:02.941Z,6.10
2023-01-15T00:10:06.231Z,6.00
2023-01-15T00:15:09.243Z,6.00
2023-01-15T00:20:12.120Z,6.00
2023-01-15T00:25:33.291Z,5.90
2023-01-15T00:30:41.461Z,6.10
2023-01-15T00:35:44.032Z,6.10
2023-01-15T00:40:52.894Z,6.10
2023-01-15T00:45:56.481Z,6.20
2023-01-15T00:50:59.193Z,6.20
2023-01-15T00:56:01.800Z,6.30
2023-01-15T01:01:04.597Z,6.40
2023-01-15T01:06:07.725Z,6.30
2023-01-15T01:11:11.747Z,6.30
2023-01-15T01:16:23.191Z,6.20
2023-01-15T01:21:26.906Z,6.20
2023-01-15T01:26:30.307Z,6.30
2023-01-15T01:31:33.399Z,6.40
2023-01-15T01:36:38.660Z,6.50
2023-01-15T01:41:41.359Z,6.50
2023-01-15T01:46:43.919Z,6.60
2023-01-15T01:51:51.982Z,6.60
2023-01-15T01:56:54.930Z,6.60
2023-01-15T02:01:57.583Z,6.50
2023-01-15T02:07:02.624Z,6.40
2023-01-15T02:12:38.066Z,6.40
2023-01-15T02:17:52.964Z,6.30
2023-01-15T02:23:11.636Z,6.20
2023-01-15T02:28:24.239Z,6.30
2023-01-15T02:33:40.974Z,6.40
2023-01-15T02:38:48.352Z,6.50
2023-01-15T02:43:55.080Z,6.40
2023-01-15T02:49:03.277Z,6.20
2023-01-15T02:54:15.122Z,6.20
2023-01-15T02:59:33.882Z,6.00
2023-01-15T03:04:48.928Z,6.10
2023-01-15T03:09:52.856Z,6.20
2023-01-15T03:15:33.346Z,6.30
2023-01-15T03:20:42.163Z,6.30
2023-01-15T03:25:49.564Z,6.30
2023-01-15T03:30:53.412Z,6.20
2023-01-15T03:35:59.672Z,6.10
2023-01-15T03:41:31.617Z,6.00
2023-01-15T03:46:34.225Z,5.90
2023-01-15T03:51:36.913Z,6.00
2023-01-15T03:56:58.427Z,6.30
2023-01-15T04:02:07.048Z,6.50
2023-01-15T04:07:10.397Z,6.70
2023-01-15T04:12:13.310Z,6.70
2023-01-15T04:17:20.859Z,6.80
2023-01-15T04:22:23.335Z,6.80
2023-01-15T04:27:27.311Z,6.90
2023-01-15T04:32:29.792Z,7.00
2023-01-15T04:37:32.315Z,7.00
2023-01-15T04:42:53.257Z,7.20
2023-01-15T04:47:55.829Z,7.20
2023-01-15T04:52:58.448Z,7.20
2023-01-15T04:58:00.915Z,7.30
2023-01-15T05:03:03.439Z,7.20
2023-01-15T05:08:06.093Z,7.10
2023-01-15T05:13:08.923Z,7.00
2023-01-15T05:18:14.933Z,6.90
2023-01-15T05:23:17.675Z,7.00
2023-01-15T05:28:20.648Z,7.00
2023-01-15T05:33:23.322Z,6.90
2023-01-15T05:38:26.328Z,6.90
2023-01-15T05:43:28.829Z,7.00
2023-01-15T05:48:31.343Z,6.90
2023-01-15T05:53:34.976Z,6.90
2023-01-15T05:58:37.775Z,6.90
2023-01-15T06:03:41.818Z,7.00
2023-01-15T06:08:45.433Z,7.10
2023-01-15T06:13:48.184Z,7.20
2023-01-15T06:18:51.466Z,7.30
2023-01-15T06:23:54.510Z,7.40
2023-01-15T06:28:58.754Z,7.50
2023-01-15T06:34:02.805Z,7.50
2023-01-15T06:39:05.468Z,7.60
2023-01-15T06:44:35.674Z,7.70
2023-01-15T06:49:39.623Z,7.80
2023-01-15T06:54:42.281Z,7.90
2023-01-15T06:59:45.020Z,7.90
2023-01-15T07:04:49.155Z,7.90
2023-01-15T07:09:51.681Z,7.80
2023-01-15T07:14:54.624Z,7.60
2023-01-15T07:19:57.579Z,7.50
2023-01-15T07:25:00.169Z,7.30
2023-01-15T07:30:02.741Z,7.20
2023-01-15T07:35:05.832Z,7.30
2023-01-15T07:40:09.391Z,7.10
2023-01-15T07:45:30.386Z,7.10
2023-01-15T07:50:33.440Z,7.00
2023-01-15T07:55:36.994Z,6.90
2023-01-15T08:00:41.828Z,6.90
2023-01-15T08:05:45.125Z,6.90
2023-01-15T08:11:06.458Z,6.80
2023-01-15T08:16:09.202Z,6.80
2023-01-15T08:21:19.662Z,6.80
2023-01-15T08:26:22.221Z,6.90
2023-01-15T08:31:25.215Z,7.00
2023-01-15T08:36:27.773Z,7.00
2023-01-15T08:41:32.233Z,6.90
2023-01-15T08:46:34.849Z,6.90
2023-01-15T08:51:37.532Z,6.90
2023-01-15T08:56:40.667Z,6.90
2023-01-15T09:01:45.089Z,6.90
2023-01-15T09:06:49.237Z,6.90
2023-01-15T09:11:51.809Z,6.80
2023-01-15T09:16:54.864Z,6.80
2023-01-15T09:21:57.560Z,6.60
2023-01-15T09:27:00.099Z,6.60
2023-01-15T09:32:02.757Z,6.50
2023-01-15T09:37:05.337Z,6.30
2023-01-15T09:42:27.498Z,6.20
2023-01-15T09:47:54.052Z,6.10
2023-01-15T09:53:20.956Z,6.10
2023-01-15T09:58:32.121Z,6.00
2023-01-15T10:03:45.776Z,6.00
2023-01-15T10:08:50.634Z,6.00
2023-01-15T10:14:00.401Z,6.00
2023-01-15T10:19:04.150Z,6.10
2023-01-15T10:24:20.593Z,6.00
2023-01-15T10:29:58.855Z,6.10
2023-01-15T10:35:19.949Z,6.10
2023-01-15T10:40:53.224Z,6.00
2023-01-15T10:46:00.538Z,6.00
2023-01-15T10:51:14.003Z,6.10
2023-01-15T10:56:30.087Z,6.10
2023-01-15T11:01:32.999Z,6.20
2023-01-15T11:06:35.884Z,6.30
2023-01-15T11:11:59.080Z,6.30
2023-01-15T11:17:08.463Z,6.40
2023-01-15T11:22:17.780Z,6.40
2023-01-15T11:27:28.423Z,6.50
2023-01-15T11:32:36.865Z,6.50
2023-01-15T11:37:39.403Z,6.60
2023-01-15T11:43:05.532Z,6.60
2023-01-15T11:48:39.467Z,6.60
2023-01-15T11:53:49.641Z,6.70
2023-01-15T11:58:56.225Z,6.70
2023-01-15T12:04:00.751Z,6.80
2023-01-15T12:09:17.376Z,6.90
2023-01-15T12:14:49.724Z,6.90
2023-01-15T12:20:04.182Z,6.80
2023-01-15T12:25:34.943Z,6.90
2023-01-15T12:30:58.777Z,6.90
2023-01-15T12:36:08.720Z,6.80
2023-01-15T12:41:15.941Z,6.90
2023-01-15T12:46:29.105Z,6.90
2023-01-15T12:51:40.971Z,6.90
2023-01-15T12:57:02.842Z,7.00
2023-01-15T13:02:25.822Z,7.00
2023-01-15T13:07:38.752Z,7.00
2023-01-15T13:12:41.384Z,7.00
2023-01-15T13:18:00.813Z,7.00
2023-01-15T13:23:17.403Z,7.10
2023-01-15T13:28:38.539Z,7.10
2023-01-15T13:33:50.708Z,7.00
2023-01-15T13:38:55.849Z,6.90
2023-01-15T13:44:03.050Z,6.90
2023-01-15T13:49:05.953Z,6.80
2023-01-15T13:54:16.432Z,6.90
2023-01-15T13:59:50.765Z,6.80
2023-01-15T14:04:54.033Z,6.90
2023-01-15T14:10:07.340Z,7.00
2023-01-15T14:15:19.453Z,7.00
2023-01-15T14:20:54.467Z,7.00
2023-01-15T14:26:15.543Z,7.00
2023-01-15T14:31:44.542Z,7.00
2023-01-15T14:37:29.758Z,7.00
2023-01-15T14:42:56.625Z,7.00
2023-01-15T14:48:02.022Z,7.00
2023-01-15T14:53:13.839Z,7.00
2023-01-15T14:58:31.394Z,6.90
2023-01-15T15:03:37.949Z,6.90
2023-01-15T15:08:42.793Z,6.90
2023-01-15T15:13:47.468Z,6.90
2023-01-15T15:19:04.878Z,6.80
2023-01-15T15:24:45.103Z,6.80
2023-01-15T15:29:47.924Z,6.70
2023-01-15T15:34:52.958Z,6.60
2023-01-15T15:40:05.332Z,6.60
2023-01-15T15:45:45.162Z,6.60
2023-01-15T15:50:48.419Z,6.60
2023-01-15T15:55:52.058Z,6.50
2023-01-15T16:00:57.137Z,6.50
2023-01-15T16:06:05.885Z,6.40
2023-01-15T16:11:12.282Z,6.40
2023-01-15T16:16:18.885Z,6.30
2023-01-15T16:21:27.222Z,6.30
2023-01-15T16:26:45.735Z,6.30
2023-01-15T16:31:48.778Z,6.20
2023-01-15T16:36:51.707Z,5.90
2023-01-15T16:41:57.835Z,5.80
2023-01-15T16:47:01.999Z,5.80
2023-01-15T16:52:47.725Z,5.80
2023-01-15T16:58:13.176Z,5.80
2023-01-15T17:03:20.657Z,5.80
2023-01-15T17:08:41.721Z,5.80
2023-01-15T17:13:44.392Z,5.80
2023-01-15T17:18:49.116Z,5.70
2023-01-15T17:23:51.790Z,5.70
2023-01-15T17:28:54.300Z,5.50
2023-01-15T17:33:58.776Z,5.30
2023-01-15T17:39:01.406Z,5.10
2023-01-15T17:44:04.322Z,5.00
2023-01-15T17:49:07.066Z,4.80
2023-01-15T17:54:09.586Z,4.70
2023-01-15T17:59:30.919Z,4.70
2023-01-15T18:05:01.228Z,4.60
2023-01-15T18:10:04.597Z,4.50
2023-01-15T18:15:07.737Z,4.40
2023-01-15T18:20:11.370Z,4.30
2023-01-15T18:25:14.011Z,4.10
2023-01-15T18:30:18.617Z,4.10
2023-01-15T18:35:23.478Z,4.10
2023-01-15T18:40:30.889Z,4.20
2023-01-15T18:45:51.926Z,4.20
2023-01-15T18:50:55.850Z,4.20
2023-01-15T18:56:03.529Z,4.20
2023-01-15T19:01:07.572Z,4.20
2023-01-15T19:06:12.567Z,4.20
2023-01-15T19:11:15.315Z,4.00
2023-01-15T19:16:46.994Z,4.00
2023-01-15T19:22:12.821Z,4.10
2023-01-15T19:27:16.529Z,4.20
2023-01-15T19:32:19.242Z,4.30
2023-01-15T19:37:22.256Z,4.40
2023-01-15T19:42:43.571Z,4.40
2023-01-15T19:48:04.950Z,4.40
2023-01-15T19:53:09.400Z,4.30
2023-01-15T19:58:15.619Z,4.40
2023-01-15T20:03:18.880Z,4.40
2023-01-15T20:08:21.662Z,4.50
2023-01-15T20:13:43.286Z,4.50
2023-01-15T20:18:49.200Z,4.60
2023-01-15T20:23:51.713Z,4.50
2023-01-15T20:28:54.314Z,4.40
2023-01-15T20:34:01.828Z,4.50
2023-01-15T20:39:04.709Z,4.40
2023-01-15T20:44:26.180Z,4.30
2023-01-15T20:49:30.231Z,4.50
2023-01-15T20:54:32.904Z,4.50
2023-01-15T20:59:35.462Z,4.50
2023-01-15T21:04:38.019Z,4.40
2023-01-15T21:09:40.727Z,4.50
2023-01-15T21:14:43.516Z,4.40
2023-01-15T21:19:46.033Z,4.20
2023-01-15T21:24:51.419Z,4.10
2023-01-15T21:29:56.300Z,4.10
2023-01-15T21:34:58.951Z,4.20
2023-01-15T21:40:01.560Z,4.20
2023-01-15T21:45:05.476Z,4.30
2023-01-15T21:50:08.980Z,4.30
2023-01-15T21:55:13.227Z,4.30
2023-01-15T22:00:17.828Z,4.20
2023-01-15T22:05:20.341Z,4.20
2023-01-15T22:10:23.866Z,4.20
2023-01-15T22:15:26.364Z,4.20
2023-01-15T22:20:29.038Z,4.20
2023-01-15T22:25:31.757Z,4.30
2023-01-15T22:30:37.742Z,4.20
2023-01-15T22:35:40.333Z,4.00
2023-01-15T22:40:42.938Z,4.00
2023-01-15T22:45:45.429Z,3.80
2023-01-15T22:50:47.934Z,3.70
2023-01-15T22:56:00.566Z,3.70
2023-01-15T23:01:03.213Z,3.80
2023-01-15T23:06:07.489Z,3.70
2023-01-15T23:11:15.758Z,3.60
2023-01-15T23:16:18.725Z,3.50
2023-01-15T23:21:24.761Z,3.40
2023-01-15T23:26:33.180Z,3.10
2023-01-15T23:31:36.075Z,2.80
2023-01-15T23:36:39.582Z,2.70
2023-01-15T23:42:00.857Z,2.60
2023-01-15T23:47:03.565Z,2.60
2023-01-15T23:52:06.111Z,2.50
2023-01-15T23:57:08.794Z,2.50
